| time (UTC) | temp C | wind direction | speed KPH | gust KPH | rain 1hr cm | rain 24hr cm | rain mn cm | humidity % | barometer mb |
| 20260508013131 | 11 | 345 | 0.0 | 0.0 | 0.00 | 0.61 | 0.00 | 96 | 1011.1 |
| 20260508011603 | 11 | 345 | 0.0 | 0.0 | 0.00 | 0.61 | 0.00 | 96 | 1011.3 |
| 20260508010129 | 11 | 345 | 0.0 | 0.0 | 0.00 | 0.61 | 0.00 | 96 | 1011.2 |
| 20260508004601 | 11 | 345 | 0.0 | 0.0 | 0.00 | 0.69 | 0.00 | 95 | 1011.3 |
| 20260508003136 | 11 | 345 | 0.0 | 0.0 | 0.00 | 0.69 | 0.00 | 96 | 1011.2 |
| 20260508001604 | 11 | 349 | 0.0 | 0.0 | 0.00 | 0.69 | 0.00 | 96 | 1011.4 |
| 20260508000002 | 11 | 279 | 0.0 | 0.0 | 0.00 | 0.69 | 0.00 | 95 | 1011.5 |
| 20260507233113 | 11 | 279 | 1.6 | 3.2 | 0.00 | 0.71 | 0.00 | 94 | 1011.6 |
| 20260507231602 | 11 | 279 | 0.0 | 1.6 | 0.00 | 0.71 | 0.00 | 94 | 1011.7 |
| 20260507230005 | 11 | 279 | 0.0 | 4.8 | 0.00 | 0.71 | 0.00 | 94 | 1011.5 |
| 20260507224606 | 11 | 284 | 1.6 | 3.2 | 0.00 | 0.76 | 0.71 | 93 | 1011.5 |
| 20260507221559 | 11 | 283 | 1.6 | 4.8 | 0.00 | 0.76 | 0.71 | 92 | 1011.5 |
| 20260507220001 | 12 | 306 | 0.0 | 3.2 | 0.00 | 0.76 | 0.71 | 92 | 1011.4 |
| 20260507214600 | 12 | 309 | 0.0 | 4.8 | 0.00 | 0.76 | 0.71 | 91 | 1011.3 |
| 20260507213118 | 12 | 317 | 1.6 | 4.8 | 0.00 | 0.76 | 0.71 | 91 | 1011.3 |
| 20260507211600 | 12 | 274 | 0.0 | 6.4 | 0.00 | 0.76 | 0.71 | 90 | 1011.3 |
| 20260507210003 | 12 | 268 | 3.2 | 6.4 | 0.00 | 0.76 | 0.71 | 90 | 1011.3 |
| 20260507204607 | 12 | 288 | 0.0 | 8.0 | 0.05 | 0.76 | 0.71 | 90 | 1011.3 |
| 20260507203125 | 13 | 294 | 4.8 | 8.0 | 0.28 | 0.76 | 0.71 | 89 | 1011.2 |
| 20260507201603 | 13 | 250 | 1.6 | 4.8 | 0.28 | 0.76 | 0.71 | 87 | 1011.0 |
| 20260507200006 | 13 | 245 | 1.6 | 6.4 | 0.28 | 0.76 | 0.71 | 85 | 1011.0 |
| 20260507194700 | 14 | 244 | 1.6 | 9.7 | 0.23 | 0.71 | 0.66 | 82 | 1010.7 |
| 20260507193006 | 15 | 263 | 4.8 | 11.3 | 0.00 | 0.48 | 0.43 | 74 | 1010.4 |
| 20260507191608 | 16 | 24 | 1.6 | 3.2 | 0.00 | 0.48 | 0.43 | 75 | 1010.2 |
| 20260507190002 | 16 | 24 | 1.6 | 3.2 | 0.00 | 0.48 | 0.43 | 73 | 1009.8 |
| 20260507184600 | 16 | 24 | 1.6 | 3.2 | 0.00 | 0.48 | 0.43 | 74 | 1009.8 |
| 20260507181600 | 17 | 24 | 1.6 | 3.2 | 0.00 | 0.48 | 0.43 | 71 | 1009.5 |
| 20260507180001 | 17 | 24 | 3.2 | 4.8 | 0.00 | 0.48 | 0.43 | 69 | 1009.5 |
| 20260507174609 | 17 | 24 | 1.6 | 4.8 | 0.00 | 0.48 | 0.43 | 67 | 1009.4 |
| 20260507173135 | 18 | 24 | 3.2 | 4.8 | 0.00 | 0.48 | 0.43 | 66 | 1009.2 |
| 20260507171608 | 18 | 115 | 0.0 | 3.2 | 0.00 | 0.48 | 0.43 | 68 | 1009.2 |
| 20260507170001 | 19 | 115 | 1.6 | 4.8 | 0.00 | 0.48 | 0.43 | 63 | 1009.1 |
| 20260507164608 | 20 | 109 | 1.6 | 9.7 | 0.00 | 0.48 | 0.43 | 54 | 1009.1 |
| 20260507163140 | 21 | 107 | 4.8 | 9.7 | 0.00 | 0.48 | 0.43 | 50 | 1009.1 |
| 20260507161616 | 21 | 236 | 0.0 | 6.4 | 0.00 | 0.48 | 0.43 | 53 | 1009.1 |
| 20260507160137 | 20 | 194 | 0.0 | 4.8 | 0.00 | 0.48 | 0.43 | 53 | 1009.0 |
| 20260507154600 | 20 | 526.3 | 410.4 | 0.00 | 0.48 | 0.43 | 54 | 1009.0 | |
| 20260507153119 | 21 | 526.3 | 410.4 | 0.00 | 0.48 | 0.43 | 49 | 1009.0 | |
| 20260507151601 | 21 | 526.3 | 410.4 | 0.00 | 0.48 | 0.43 | 54 | 1009.0 | |
| 20260507150129 | 20 | 526.3 | 410.4 | 0.00 | 0.48 | 0.43 | 53 | 1009.2 | |
| 20260507144606 | 21 | 526.3 | 410.4 | 0.00 | 0.79 | 0.43 | 52 | 1009.1 | |
| 20260507143117 | 20 | 526.3 | 410.4 | 0.00 | 0.79 | 0.43 | 57 | 1009.4 | |
| 20260507141620 | 20 | 526.3 | 410.4 | 0.00 | 0.79 | 0.43 | 59 | 1009.4 | |
| 20260507140132 | 19 | 526.3 | 410.4 | 0.00 | 0.79 | 0.43 | 56 | 1009.6 | |
| 20260507134609 | 18 | 526.3 | 410.4 | 0.00 | 0.89 | 0.43 | 59 | 1009.6 | |
| 20260507133122 | 19 | 526.3 | 410.4 | 0.00 | 0.89 | 0.43 | 59 | 1009.8 | |
| 20260507131603 | 20 | 526.3 | 410.4 | 0.00 | 0.89 | 0.43 | 56 | 1009.9 | |
| 20260507130124 | 18 | 526.3 | 410.4 | 0.00 | 0.89 | 0.43 | 59 | 1010.1 | |
| 20260507124606 | 19 | 526.3 | 410.4 | 0.00 | 0.99 | 0.43 | 60 | 1010.1 | |
| 20260507123121 | 19 | 526.3 | 410.4 | 0.00 | 0.99 | 0.43 | 58 | 1010.3 | |
| 20260507121601 | 19 | 526.3 | 410.4 | 0.00 | 0.99 | 0.43 | 60 | 1010.3 | |
| 20260507114604 | 18 | 175 | 6.4 | 16.1 | 0.00 | 1.09 | 0.43 | 63 | 1010.6 |
| 20260507113138 | 18 | 95 | 6.4 | 16.1 | 0.00 | 1.09 | 0.43 | 60 | 1010.6 |
| 20260507111604 | 18 | 132 | 1.6 | 14.5 | 0.00 | 1.09 | 0.43 | 64 | 1010.7 |
| 20260507110004 | 18 | 186 | 3.2 | 17.7 | 0.00 | 1.09 | 0.43 | 66 | 1010.9 |
| 20260507104600 | 18 | 86 | 8.0 | 17.7 | 0.00 | 1.17 | 0.43 | 63 | 1011.0 |
| 20260507103126 | 18 | 178 | 6.4 | 16.1 | 0.00 | 1.17 | 0.43 | 68 | 1011.0 |
| 20260507101629 | 18 | 133 | 11.3 | 19.3 | 0.00 | 1.17 | 0.43 | 67 | 1011.1 |
| 20260507100142 | 17 | 113 | 4.8 | 19.3 | 0.00 | 1.17 | 0.43 | 69 | 1011.1 |
| 20260507093125 | 17 | 92 | 8.0 | 12.9 | 0.00 | 1.19 | 0.43 | 73 | 1011.1 |
| 20260507091558 | 16 | 215 | 3.2 | 14.5 | 0.00 | 1.19 | 0.43 | 71 | 1011.0 |
| 20260507090132 | 15 | 134 | 3.2 | 14.5 | 0.00 | 1.19 | 0.43 | 76 | 1011.0 |
| 20260507084557 | 15 | 144 | 6.4 | 14.5 | 0.00 | 1.24 | 0.43 | 77 | 1011.0 |
| 20260507083130 | 15 | 171 | 6.4 | 14.5 | 0.00 | 1.24 | 0.43 | 78 | 1010.9 |
| 20260507081558 | 14 | 123 | 0.0 | 8.0 | 0.00 | 1.24 | 0.43 | 77 | 1010.9 |
| 20260507080138 | 14 | 140 | 4.8 | 14.5 | 0.00 | 1.24 | 0.43 | 78 | 1010.9 |
| 20260507074600 | 13 | 171 | 3.2 | 9.7 | 0.00 | 1.30 | 0.43 | 83 | 1010.9 |
| 20260507073143 | 13 | 126 | 1.6 | 9.7 | 0.00 | 1.30 | 0.43 | 87 | 1010.8 |
| 20260507071606 | 12 | 91 | 3.2 | 6.4 | 0.00 | 1.30 | 0.43 | 90 | 1010.8 |
| 20260507070119 | 12 | 102 | 3.2 | 4.8 | 0.00 | 1.30 | 0.43 | 90 | 1010.8 |
| 20260507064616 | 11 | 19 | 0.0 | 4.8 | 0.00 | 1.37 | 0.43 | 92 | 1010.7 |
| 20260507063058 | 10 | 19 | 1.6 | 4.8 | 0.00 | 1.37 | 0.43 | 93 | 1010.7 |
| 20260507061559 | 10 | 5 | 1.6 | 6.4 | 0.00 | 1.37 | 0.43 | 94 | 1010.6 |
| 20260507060143 | 10 | 12 | 3.2 | 4.8 | 0.00 | 1.37 | 0.43 | 95 | 1010.4 |
| 20260507054608 | 10 | 12 | 1.6 | 4.8 | 0.00 | 1.42 | 0.43 | 96 | 1010.4 |
| 20260507053118 | 10 | 5 | 1.6 | 4.8 | 0.00 | 1.42 | 0.43 | 97 | 1010.2 |
| 20260507051558 | 9 | 5 | 1.6 | 4.8 | 0.00 | 1.42 | 0.43 | 97 | 1010.1 |
| 20260507050133 | 8 | 350 | 0.0 | 3.2 | 0.00 | 1.42 | 0.43 | 96 | 1009.9 |
| 20260507044558 | 8 | 350 | 3.2 | 6.4 | 0.00 | 1.42 | 0.43 | 96 | 1009.8 |
| 20260507043129 | 8 | 333 | 3.2 | 4.8 | 0.00 | 1.42 | 0.43 | 95 | 1009.6 |
| 20260507041608 | 8 | 324 | 0.0 | 6.4 | 0.00 | 1.42 | 0.43 | 95 | 1009.3 |
| 20260507040136 | 8 | 317 | 3.2 | 6.4 | 0.08 | 1.42 | 0.43 | 95 | 1009.2 |
| 20260507034659 | 9 | 330 | 1.6 | 4.8 | 0.13 | 1.50 | 0.43 | 95 | 1009.1 |
| 20260507033123 | 9 | 5 | 0.0 | 3.2 | 0.15 | 1.50 | 0.43 | 96 | 1009.1 |
| 20260507031604 | 9 | 5 | 0.0 | 1.6 | 0.20 | 1.50 | 0.43 | 95 | 1009.1 |
| 20260507030138 | 10 | 5 | 0.0 | 3.2 | 0.15 | 1.42 | 0.36 | 95 | 1009.1 |
| 20260507024607 | 10 | 5 | 1.6 | 4.8 | 0.13 | 1.37 | 0.30 | 96 | 1009.1 |
| 20260507023122 | 10 | 5 | 1.6 | 6.4 | 0.13 | 1.37 | 0.28 | 96 | 1009.2 |
| 20260507021559 | 10 | 289 | 1.6 | 4.8 | 0.13 | 1.32 | 0.23 | 96 | 1009.1 |
| 20260507020002 | 10 | 290 | 0.0 | 3.2 | 0.13 | 1.30 | 0.23 | 96 | 1009.1 |
| 20260507014608 | 10 | 290 | 1.6 | 4.8 | 0.10 | 1.30 | 0.18 | 96 | 1009.2 |